Munchen>> — DF8083 — position and weather

sailwx.info

Track history (hours):
 
Tides and Currents Weather Stations Pressure Air Temp Water Temp Dewpoint Dewpoint Depression Visibility Wind Speed Wind Dir Waves Ship Positions

Munchen>>

Last reported at 2017-Dec-27 16:28 UTC. Time now 2018-Feb-18 23:49 UTC.
Position N 44°23' E 028°02'.
Warning: this ship's position is 53 days out of date.

Length 37 m; draft 0.2 m.

Type: Towing. MMSI: 211644640.

Date/timePositionNaut miles runAvg speedWind from/ knotsBaromVisibWave heightAir tempDewpointWater temp
2017-Dec-27 16:28N 44°23' E 028°02'0 0.0
2017-Dec-26 10:55N 44°23' E 028°02'0 0.0
2017-Dec-26 07:12N 44°23' E 028°02'0 0.0
2017-Dec-26 06:58N 44°23' E 028°02'0 0.0
2017-Dec-26 05:55N 44°23' E 028°02'0 0.0
2017-Dec-26 02:33N 44°23' E 028°02'0 0.0
2017-Dec-26 02:27N 44°23' E 028°02'0 0.0
2017-Dec-26 01:57N 44°23' E 028°02'0 0.0
2017-Dec-26 01:26N 44°23' E 028°02'0 0.0
2017-Dec-26 00:58N 44°23' E 028°02'0 0.0
2017-Dec-26 00:28N 44°23' E 028°02'0 0.0
2017-Dec-25 23:57N 44°23' E 028°02'0 0.0
2017-Dec-25 23:30N 44°23' E 028°02'0 0.0
2017-Dec-25 22:19N 44°23' E 028°02'0 0.0
2017-Dec-25 21:56N 44°23' E 028°02'0 0.0
2017-Dec-25 21:29N 44°23' E 028°02'0 0.0
2017-Dec-25 20:40N 44°23' E 028°02'0 0.0
2017-Dec-25 20:29N 44°23' E 028°02'0 0.0
2017-Dec-25 20:00N 44°23' E 028°02'0 0.0
2017-Dec-25 19:29N 44°23' E 028°02'0 0.0
2017-Dec-25 18:57N 44°23' E 028°02'  
2017-Dec-21 08:12N 44°22' E 028°02'0 0.0
2017-Dec-21 02:47N 44°22' E 028°02'4 2.9
2017-Dec-21 01:16N 44°18' E 028°03'1 3.1
2017-Dec-21 01:00N 44°17' E 028°04'2 3.0
2017-Dec-21 00:30N 44°16' E 028°05'2 4.0
2017-Dec-21 00:00N 44°16' E 028°08'3 5.4
2017-Dec-20 23:30N 44°16' E 028°12'3 5.5
2017-Dec-20 23:00N 44°15' E 028°16'3 5.6
2017-Dec-20 22:30N 44°15' E 028°20'3 5.4
2017-Dec-20 22:00N 44°13' E 028°23'3 5.5
2017-Dec-20 21:30N 44°11' E 028°24'6 5.3
2017-Dec-20 20:26N 44°06' E 028°28'2 5.6
2017-Dec-20 20:00N 44°06' E 028°32'3 5.6
2017-Dec-20 19:30N 44°06' E 028°35'1 2.6
2017-Dec-20 19:00N 44°06' E 028°37'1 2.1
2017-Dec-20 18:30N 44°06' E 028°39'1 1.8
2017-Dec-20 18:00N 44°07' E 028°39'0 0.0
2017-Dec-20 17:30N 44°07' E 028°39'0 0.0
2017-Dec-20 17:00N 44°07' E 028°39'0 0.0
2017-Dec-20 16:30N 44°07' E 028°39'0 0.0
2017-Dec-20 16:00N 44°07' E 028°39'0 0.0
2017-Dec-20 15:30N 44°07' E 028°39'0 0.2
2017-Dec-20 15:00N 44°07' E 028°39'0 0.0
2017-Dec-20 14:30N 44°07' E 028°39'0 0.0
2017-Dec-20 14:00N 44°07' E 028°39'0 0.0
2017-Dec-20 13:30N 44°07' E 028°39'0 0.0
2017-Dec-20 13:00N 44°07' E 028°39'0 0.0
2017-Dec-20 12:30N 44°07' E 028°39'0 0.0
2017-Dec-20 12:00N 44°07' E 028°39'0 0.0
2017-Dec-20 11:30N 44°07' E 028°39'0 0.0
2017-Dec-20 11:00N 44°07' E 028°39'0 0.0
2017-Dec-20 10:30N 44°07' E 028°39'0 0.0
2017-Dec-20 10:00N 44°07' E 028°39'0 0.0
2017-Dec-20 09:30N 44°07' E 028°39'0 0.0
2017-Dec-20 09:00N 44°07' E 028°39'0 0.0
2017-Dec-20 08:30N 44°07' E 028°39'0 0.0
2017-Dec-20 08:00N 44°07' E 028°39'0 0.0
2017-Dec-20 07:30N 44°07' E 028°39'0 0.0
2017-Dec-20 07:00N 44°07' E 028°39'0 0.0
2017-Dec-20 06:30N 44°07' E 028°39'0 0.0
2017-Dec-20 06:00N 44°07' E 028°39'0 0.0
2017-Dec-20 05:30N 44°07' E 028°39'0 0.0
2017-Dec-20 05:00N 44°07' E 028°39'0 0.0
2017-Dec-20 04:30N 44°07' E 028°39'0 0.0
2017-Dec-20 04:00N 44°07' E 028°39'0 0.0
2017-Dec-20 03:30N 44°07' E 028°39'0 0.0
2017-Dec-20 03:00N 44°07' E 028°39'0 0.0
2017-Dec-20 02:30N 44°07' E 028°39'1 1.1
2017-Dec-20 02:00N 44°06' E 028°39'1 2.5
2017-Dec-20 01:30N 44°06' E 028°37'1 1.8
2017-Dec-20 01:00N 44°06' E 028°36'3 6.5
2017-Dec-20 00:30N 44°06' E 028°31'5 5.5
2017-Dec-19 23:34N 44°09' E 028°26'1 6.5
2017-Dec-19 23:26N 44°10' E 028°25'3 6.2
2017-Dec-19 23:00N 44°12' E 028°23'3 6.3
2017-Dec-19 22:30N 44°15' E 028°21'3 6.3
2017-Dec-19 22:00N 44°15' E 028°17'3 6.4
2017-Dec-19 21:30N 44°16' E 028°12'3 5.7
2017-Dec-19 21:00N 44°16' E 028°08'3 5.9
2017-Dec-19 20:30N 44°17' E 028°04'6 3.9
2017-Dec-19 19:04N 44°22' E 028°02'0 0.0
2017-Dec-19 11:29N 44°22' E 028°02'0 0.0
2017-Dec-18 20:24N 44°22' E 028°02'4 2.0
2017-Dec-18 18:18N 44°18' E 028°03'1 5.0
2017-Dec-18 18:00N 44°17' E 028°04'2 5.0
2017-Dec-18 17:30N 44°16' E 028°08'3 5.1
2017-Dec-18 17:00N 44°16' E 028°11'3 5.0
2017-Dec-18 16:30N 44°15' E 028°15'3 5.1
2017-Dec-18 16:00N 44°15' E 028°18'2 4.8
2017-Dec-18 15:30N 44°15' E 028°21'3 5.1
2017-Dec-18 15:00N 44°12' E 028°23'3 5.0
2017-Dec-18 14:30N 44°10' E 028°25'3 4.9
2017-Dec-18 13:48N 44°07' E 028°27'1 4.8
2017-Dec-18 13:30N 44°06' E 028°28'3 4.9
2017-Dec-18 12:59N 44°06' E 028°32'2 5.0
2017-Dec-18 12:30N 44°06' E 028°35'2 3.0
2017-Dec-18 12:00N 44°06' E 028°37'1 1.1
2017-Dec-18 11:30N 44°06' E 028°38'1 2.4
2017-Dec-18 11:00N 44°07' E 028°39'0 0.0
2017-Dec-18 10:30N 44°07' E 028°39'0 0.1
2017-Dec-18 10:00N 44°07' E 028°39'0 0.2
2017-Dec-18 09:30N 44°07' E 028°39'0 0.0
2017-Dec-18 09:00N 44°07' E 028°39'0 0.0
2017-Dec-18 08:30N 44°07' E 028°39'0 0.0
2017-Dec-18 08:00N 44°07' E 028°39'0 0.0
2017-Dec-18 07:30N 44°07' E 028°39'0 0.0
2017-Dec-18 07:00N 44°07' E 028°39'0 0.0
2017-Dec-18 06:30N 44°07' E 028°39'0 0.0
2017-Dec-18 06:00N 44°07' E 028°39'0 0.0
2017-Dec-18 05:30N 44°07' E 028°39'0 0.0
2017-Dec-18 05:00N 44°07' E 028°39'0 0.0
2017-Dec-18 04:30N 44°07' E 028°39'0 0.0
2017-Dec-18 04:00N 44°07' E 028°39'0 0.0
2017-Dec-18 03:30N 44°07' E 028°39'0 0.0
2017-Dec-18 03:00N 44°07' E 028°39'0 0.0
2017-Dec-18 02:30N 44°07' E 028°39'0 0.0
2017-Dec-18 02:00N 44°07' E 028°39'0 0.0
2017-Dec-18 01:30N 44°07' E 028°39'0 0.0
2017-Dec-18 01:00N 44°07' E 028°39'0 0.0
2017-Dec-18 00:30N 44°07' E 028°39'0 0.0
2017-Dec-18 00:00N 44°07' E 028°39'0 0.0
2017-Dec-17 23:30N 44°07' E 028°39'0 0.0
2017-Dec-17 23:00N 44°07' E 028°39'0 0.0
2017-Dec-17 22:30N 44°07' E 028°39'0 0.0
2017-Dec-17 22:00N 44°07' E 028°39'0 0.0
2017-Dec-17 21:30N 44°07' E 028°39'0 0.0
2017-Dec-17 21:00N 44°07' E 028°39'0 0.0
2017-Dec-17 20:30N 44°07' E 028°39'0 0.0
2017-Dec-17 20:00N 44°07' E 028°39'0 0.0
2017-Dec-17 19:30N 44°07' E 028°39'0 0.0
2017-Dec-17 19:00N 44°07' E 028°39'0 0.0
2017-Dec-17 18:30N 44°07' E 028°39'0 0.0
2017-Dec-17 18:00N 44°07' E 028°39'0 0.0
2017-Dec-17 17:30N 44°07' E 028°39'0 0.0
2017-Dec-17 17:00N 44°07' E 028°39'0 0.0
2017-Dec-17 16:30N 44°07' E 028°39'  
Track history (hours):
 
Tides and Currents Weather Stations Pressure Air Temp Water Temp Dewpoint Dewpoint Depression Visibility Wind Speed Wind Dir Waves Ship Positions

Munchen>>

Last reported at 2017-Dec-27 16:28 UTC. Time now 2018-Feb-18 23:49 UTC.
Position N 44°23' E 028°02'.
Warning: this ship's position is 53 days out of date.

Length 37 m; draft 0.2 m.

Type: Towing. MMSI: 211644640.

Date/timePositionNaut miles runAvg speedWind from/ knotsBaromVisibWave heightAir tempDewpointWater temp
2017-Dec-27 16:28N 44°23' E 028°02'0 0.0
2017-Dec-26 10:55N 44°23' E 028°02'0 0.0
2017-Dec-26 07:12N 44°23' E 028°02'0 0.0
2017-Dec-26 06:58N 44°23' E 028°02'0 0.0
2017-Dec-26 05:55N 44°23' E 028°02'0 0.0
2017-Dec-26 02:33N 44°23' E 028°02'0 0.0
2017-Dec-26 02:27N 44°23' E 028°02'0 0.0
2017-Dec-26 01:57N 44°23' E 028°02'0 0.0
2017-Dec-26 01:26N 44°23' E 028°02'0 0.0
2017-Dec-26 00:58N 44°23' E 028°02'0 0.0
2017-Dec-26 00:28N 44°23' E 028°02'0 0.0
2017-Dec-25 23:57N 44°23' E 028°02'0 0.0
2017-Dec-25 23:30N 44°23' E 028°02'0 0.0
2017-Dec-25 22:19N 44°23' E 028°02'0 0.0
2017-Dec-25 21:56N 44°23' E 028°02'0 0.0
2017-Dec-25 21:29N 44°23' E 028°02'0 0.0
2017-Dec-25 20:40N 44°23' E 028°02'0 0.0
2017-Dec-25 20:29N 44°23' E 028°02'0 0.0
2017-Dec-25 20:00N 44°23' E 028°02'0 0.0
2017-Dec-25 19:29N 44°23' E 028°02'0 0.0
2017-Dec-25 18:57N 44°23' E 028°02'  
2017-Dec-21 08:12N 44°22' E 028°02'0 0.0
2017-Dec-21 02:47N 44°22' E 028°02'4 2.9
2017-Dec-21 01:16N 44°18' E 028°03'1 3.1
2017-Dec-21 01:00N 44°17' E 028°04'2 3.0
2017-Dec-21 00:30N 44°16' E 028°05'2 4.0
2017-Dec-21 00:00N 44°16' E 028°08'3 5.4
2017-Dec-20 23:30N 44°16' E 028°12'3 5.5
2017-Dec-20 23:00N 44°15' E 028°16'3 5.6
2017-Dec-20 22:30N 44°15' E 028°20'3 5.4
2017-Dec-20 22:00N 44°13' E 028°23'3 5.5
2017-Dec-20 21:30N 44°11' E 028°24'6 5.3
2017-Dec-20 20:26N 44°06' E 028°28'2 5.6
2017-Dec-20 20:00N 44°06' E 028°32'3 5.6
2017-Dec-20 19:30N 44°06' E 028°35'1 2.6
2017-Dec-20 19:00N 44°06' E 028°37'1 2.1
2017-Dec-20 18:30N 44°06' E 028°39'1 1.8
2017-Dec-20 18:00N 44°07' E 028°39'0 0.0
2017-Dec-20 17:30N 44°07' E 028°39'0 0.0
2017-Dec-20 17:00N 44°07' E 028°39'0 0.0
2017-Dec-20 16:30N 44°07' E 028°39'0 0.0
2017-Dec-20 16:00N 44°07' E 028°39'0 0.0
2017-Dec-20 15:30N 44°07' E 028°39'0 0.2
2017-Dec-20 15:00N 44°07' E 028°39'0 0.0
2017-Dec-20 14:30N 44°07' E 028°39'0 0.0
2017-Dec-20 14:00N 44°07' E 028°39'0 0.0
2017-Dec-20 13:30N 44°07' E 028°39'0 0.0
2017-Dec-20 13:00N 44°07' E 028°39'0 0.0
2017-Dec-20 12:30N 44°07' E 028°39'0 0.0
2017-Dec-20 12:00N 44°07' E 028°39'0 0.0
2017-Dec-20 11:30N 44°07' E 028°39'0 0.0
2017-Dec-20 11:00N 44°07' E 028°39'0 0.0
2017-Dec-20 10:30N 44°07' E 028°39'0 0.0
2017-Dec-20 10:00N 44°07' E 028°39'0 0.0
2017-Dec-20 09:30N 44°07' E 028°39'0 0.0
2017-Dec-20 09:00N 44°07' E 028°39'0 0.0
2017-Dec-20 08:30N 44°07' E 028°39'0 0.0
2017-Dec-20 08:00N 44°07' E 028°39'0 0.0
2017-Dec-20 07:30N 44°07' E 028°39'0 0.0
2017-Dec-20 07:00N 44°07' E 028°39'0 0.0
2017-Dec-20 06:30N 44°07' E 028°39'0 0.0
2017-Dec-20 06:00N 44°07' E 028°39'0 0.0
2017-Dec-20 05:30N 44°07' E 028°39'0 0.0
2017-Dec-20 05:00N 44°07' E 028°39'0 0.0
2017-Dec-20 04:30N 44°07' E 028°39'0 0.0
2017-Dec-20 04:00N 44°07' E 028°39'0 0.0
2017-Dec-20 03:30N 44°07' E 028°39'0 0.0
2017-Dec-20 03:00N 44°07' E 028°39'0 0.0
2017-Dec-20 02:30N 44°07' E 028°39'1 1.1
2017-Dec-20 02:00N 44°06' E 028°39'1 2.5
2017-Dec-20 01:30N 44°06' E 028°37'1 1.8
2017-Dec-20 01:00N 44°06' E 028°36'3 6.5
2017-Dec-20 00:30N 44°06' E 028°31'5 5.5
2017-Dec-19 23:34N 44°09' E 028°26'1 6.5
2017-Dec-19 23:26N 44°10' E 028°25'3 6.2
2017-Dec-19 23:00N 44°12' E 028°23'3 6.3
2017-Dec-19 22:30N 44°15' E 028°21'3 6.3
2017-Dec-19 22:00N 44°15' E 028°17'3 6.4
2017-Dec-19 21:30N 44°16' E 028°12'3 5.7
2017-Dec-19 21:00N 44°16' E 028°08'3 5.9
2017-Dec-19 20:30N 44°17' E 028°04'6 3.9
2017-Dec-19 19:04N 44°22' E 028°02'0 0.0
2017-Dec-19 11:29N 44°22' E 028°02'0 0.0
2017-Dec-18 20:24N 44°22' E 028°02'4 2.0
2017-Dec-18 18:18N 44°18' E 028°03'1 5.0
2017-Dec-18 18:00N 44°17' E 028°04'2 5.0
2017-Dec-18 17:30N 44°16' E 028°08'3 5.1
2017-Dec-18 17:00N 44°16' E 028°11'3 5.0
2017-Dec-18 16:30N 44°15' E 028°15'3 5.1
2017-Dec-18 16:00N 44°15' E 028°18'2 4.8
2017-Dec-18 15:30N 44°15' E 028°21'3 5.1
2017-Dec-18 15:00N 44°12' E 028°23'3 5.0
2017-Dec-18 14:30N 44°10' E 028°25'3 4.9
2017-Dec-18 13:48N 44°07' E 028°27'1 4.8
2017-Dec-18 13:30N 44°06' E 028°28'3 4.9
2017-Dec-18 12:59N 44°06' E 028°32'2 5.0
2017-Dec-18 12:30N 44°06' E 028°35'2 3.0
2017-Dec-18 12:00N 44°06' E 028°37'1 1.1
2017-Dec-18 11:30N 44°06' E 028°38'1 2.4
2017-Dec-18 11:00N 44°07' E 028°39'0 0.0
2017-Dec-18 10:30N 44°07' E 028°39'0 0.1
2017-Dec-18 10:00N 44°07' E 028°39'0 0.2
2017-Dec-18 09:30N 44°07' E 028°39'0 0.0
2017-Dec-18 09:00N 44°07' E 028°39'0 0.0
2017-Dec-18 08:30N 44°07' E 028°39'0 0.0
2017-Dec-18 08:00N 44°07' E 028°39'0 0.0
2017-Dec-18 07:30N 44°07' E 028°39'0 0.0
2017-Dec-18 07:00N 44°07' E 028°39'0 0.0
2017-Dec-18 06:30N 44°07' E 028°39'0 0.0
2017-Dec-18 06:00N 44°07' E 028°39'0 0.0
2017-Dec-18 05:30N 44°07' E 028°39'0 0.0
2017-Dec-18 05:00N 44°07' E 028°39'0 0.0
2017-Dec-18 04:30N 44°07' E 028°39'0 0.0
2017-Dec-18 04:00N 44°07' E 028°39'0 0.0
2017-Dec-18 03:30N 44°07' E 028°39'0 0.0
2017-Dec-18 03:00N 44°07' E 028°39'0 0.0
2017-Dec-18 02:30N 44°07' E 028°39'0 0.0
2017-Dec-18 02:00N 44°07' E 028°39'0 0.0
2017-Dec-18 01:30N 44°07' E 028°39'0 0.0
2017-Dec-18 01:00N 44°07' E 028°39'0 0.0
2017-Dec-18 00:30N 44°07' E 028°39'0 0.0
2017-Dec-18 00:00N 44°07' E 028°39'0 0.0
2017-Dec-17 23:30N 44°07' E 028°39'0 0.0
2017-Dec-17 23:00N 44°07' E 028°39'0 0.0
2017-Dec-17 22:30N 44°07' E 028°39'0 0.0
2017-Dec-17 22:00N 44°07' E 028°39'0 0.0
2017-Dec-17 21:30N 44°07' E 028°39'0 0.0
2017-Dec-17 21:00N 44°07' E 028°39'0 0.0
2017-Dec-17 20:30N 44°07' E 028°39'0 0.0
2017-Dec-17 20:00N 44°07' E 028°39'0 0.0
2017-Dec-17 19:30N 44°07' E 028°39'0 0.0
2017-Dec-17 19:00N 44°07' E 028°39'0 0.0
2017-Dec-17 18:30N 44°07' E 028°39'0 0.0
2017-Dec-17 18:00N 44°07' E 028°39'0 0.0
2017-Dec-17 17:30N 44°07' E 028°39'0 0.0
2017-Dec-17 17:00N 44°07' E 028°39'0 0.0
2017-Dec-17 16:30N 44°07' E 028°39'  

Dump ship's entire track history